sensor_id;sensor_type;location;lat;lon;timestamp;temperature;humidity
7240;DHT22;3661;53.288;10.458;2024-03-23T00:54:26;7.20;99.90
7240;DHT22;3661;53.288;10.458;2024-03-23T00:56:58;7.20;99.90
7240;DHT22;3661;53.288;10.458;2024-03-23T00:59:30;7.20;99.90
7240;DHT22;3661;53.288;10.458;2024-03-23T01:02:03;7.20;99.90
7240;DHT22;3661;53.288;10.458;2024-03-23T01:04:34;7.20;99.90
7240;DHT22;3661;53.288;10.458;2024-03-23T01:07:06;7.20;99.90
7240;DHT22;3661;53.288;10.458;2024-03-23T01:09:39;7.10;99.90
7240;DHT22;3661;53.288;10.458;2024-03-23T01:12:11;7.10;99.90
7240;DHT22;3661;53.288;10.458;2024-03-23T01:14:42;7.10;99.90
7240;DHT22;3661;53.288;10.458;2024-03-23T01:17:14;7.10;99.90
7240;DHT22;3661;53.288;10.458;2024-03-23T01:19:45;7.10;99.90
7240;DHT22;3661;53.288;10.458;2024-03-23T01:22:18;7.10;99.90
7240;DHT22;3661;53.288;10.458;2024-03-23T01:24:50;7.10;99.90
7240;DHT22;3661;53.288;10.458;2024-03-23T01:27:23;7.10;99.90
7240;DHT22;3661;53.288;10.458;2024-03-23T01:29:54;7.10;99.90
7240;DHT22;3661;53.288;10.458;2024-03-23T01:32:26;7.00;99.90
7240;DHT22;3661;53.288;10.458;2024-03-23T01:34:57;7.00;99.90
7240;DHT22;3661;53.288;10.458;2024-03-23T01:37:29;7.00;99.90
7240;DHT22;3661;53.288;10.458;2024-03-23T01:40:01;7.00;99.90
7240;DHT22;3661;53.288;10.458;2024-03-23T01:42:34;7.00;99.90
7240;DHT22;3661;53.288;10.458;2024-03-23T01:45:08;7.00;99.90
7240;DHT22;3661;53.288;10.458;2024-03-23T01:47:40;7.00;99.90
7240;DHT22;3661;53.288;10.458;2024-03-23T01:50:11;6.90;99.90
7240;DHT22;3661;53.288;10.458;2024-03-23T01:52:43;6.90;99.90
7240;DHT22;3661;53.288;10.458;2024-03-23T01:55:16;6.90;99.90
7240;DHT22;3661;53.288;10.458;2024-03-23T01:57:49;6.90;99.90
7240;DHT22;3661;53.288;10.458;2024-03-23T02:00:21;6.90;99.90
7240;DHT22;3661;53.288;10.458;2024-03-23T02:02:53;6.90;99.90
7240;DHT22;3661;53.288;10.458;2024-03-23T02:05:25;6.90;99.90
7240;DHT22;3661;53.288;10.458;2024-03-23T02:08:00;6.80;99.90
7240;DHT22;3661;53.288;10.458;2024-03-23T02:10:33;6.80;99.90
7240;DHT22;3661;53.288;10.458;2024-03-23T02:13:05;6.80;99.90
7240;DHT22;3661;53.288;10.458;2024-03-23T02:15:36;6.80;99.90
7240;DHT22;3661;53.288;10.458;2024-03-23T02:18:08;6.80;99.90
7240;DHT22;3661;53.288;10.458;2024-03-23T02:20:39;6.70;99.90
7240;DHT22;3661;53.288;10.458;2024-03-23T02:23:16;6.70;99.90
7240;DHT22;3661;53.288;10.458;2024-03-23T02:25:47;6.70;99.90
7240;DHT22;3661;53.288;10.458;2024-03-23T02:28:20;6.70;99.90
7240;DHT22;3661;53.288;10.458;2024-03-23T02:30:53;6.70;99.90
7240;DHT22;3661;53.288;10.458;2024-03-23T02:33:25;6.70;99.90
7240;DHT22;3661;53.288;10.458;2024-03-23T02:35:56;6.70;99.90
7240;DHT22;3661;53.288;10.458;2024-03-23T02:38:30;6.60;99.90
7240;DHT22;3661;53.288;10.458;2024-03-23T02:41:03;6.60;99.90
7240;DHT22;3661;53.288;10.458;2024-03-23T02:43:35;6.60;99.90
7240;DHT22;3661;53.288;10.458;2024-03-23T02:46:06;6.60;99.90
7240;DHT22;3661;53.288;10.458;2024-03-23T02:48:38;6.60;99.90
7240;DHT22;3661;53.288;10.458;2024-03-23T02:51:10;6.60;99.90
7240;DHT22;3661;53.288;10.458;2024-03-23T02:53:43;6.50;99.90
7240;DHT22;3661;53.288;10.458;2024-03-23T02:56:16;6.50;99.90
7240;DHT22;3661;53.288;10.458;2024-03-23T02:58:48;6.50;99.90
7240;DHT22;3661;53.288;10.458;2024-03-23T03:01:19;6.50;99.90
7240;DHT22;3661;53.288;10.458;2024-03-23T03:03:53;6.50;99.90
7240;DHT22;3661;53.288;10.458;2024-03-23T03:06:25;6.40;99.90
7240;DHT22;3661;53.288;10.458;2024-03-23T03:08:58;6.40;99.90
7240;DHT22;3661;53.288;10.458;2024-03-23T03:11:29;6.40;99.90
7240;DHT22;3661;53.288;10.458;2024-03-23T03:14:02;6.40;99.90
7240;DHT22;3661;53.288;10.458;2024-03-23T03:16:34;6.40;99.90
7240;DHT22;3661;53.288;10.458;2024-03-23T03:19:06;6.30;99.90
7240;DHT22;3661;53.288;10.458;2024-03-23T03:21:38;6.30;99.90
7240;DHT22;3661;53.288;10.458;2024-03-23T03:24:11;6.30;99.90
7240;DHT22;3661;53.288;10.458;2024-03-23T03:26:42;6.30;99.90
7240;DHT22;3661;53.288;10.458;2024-03-23T03:29:15;6.30;99.90
7240;DHT22;3661;53.288;10.458;2024-03-23T03:31:46;6.30;99.90
7240;DHT22;3661;53.288;10.458;2024-03-23T03:34:18;6.30;99.90
7240;DHT22;3661;53.288;10.458;2024-03-23T03:36:49;6.30;99.90
7240;DHT22;3661;53.288;10.458;2024-03-23T03:39:22;6.20;99.90
7240;DHT22;3661;53.288;10.458;2024-03-23T03:41:53;6.20;99.90
7240;DHT22;3661;53.288;10.458;2024-03-23T03:44:25;6.20;99.90
7240;DHT22;3661;53.288;10.458;2024-03-23T03:46:57;6.20;99.90
7240;DHT22;3661;53.288;10.458;2024-03-23T03:49:29;6.20;99.90
7240;DHT22;3661;53.288;10.458;2024-03-23T03:52:00;6.20;99.90
7240;DHT22;3661;53.288;10.458;2024-03-23T03:54:34;6.20;99.90
7240;DHT22;3661;53.288;10.458;2024-03-23T03:57:05;6.10;99.90
7240;DHT22;3661;53.288;10.458;2024-03-23T03:59:37;6.10;99.90
7240;DHT22;3661;53.288;10.458;2024-03-23T04:02:08;6.10;99.90
7240;DHT22;3661;53.288;10.458;2024-03-23T04:04:40;6.10;99.90
7240;DHT22;3661;53.288;10.458;2024-03-23T04:07:11;6.10;99.90
7240;DHT22;3661;53.288;10.458;2024-03-23T04:09:45;6.10;99.90
7240;DHT22;3661;53.288;10.458;2024-03-23T04:12:16;6.10;99.90
7240;DHT22;3661;53.288;10.458;2024-03-23T04:14:48;6.10;99.90
7240;DHT22;3661;53.288;10.458;2024-03-23T04:17:20;6.10;99.90
7240;DHT22;3661;53.288;10.458;2024-03-23T04:19:52;6.10;99.90
7240;DHT22;3661;53.288;10.458;2024-03-23T04:22:25;6.10;99.90
7240;DHT22;3661;53.288;10.458;2024-03-23T04:24:59;6.10;99.90
7240;DHT22;3661;53.288;10.458;2024-03-23T04:27:30;6.10;99.90
7240;DHT22;3661;53.288;10.458;2024-03-23T04:30:02;6.10;99.90
7240;DHT22;3661;53.288;10.458;2024-03-23T04:32:35;6.10;99.90
7240;DHT22;3661;53.288;10.458;2024-03-23T04:35:08;6.00;99.90
7240;DHT22;3661;53.288;10.458;2024-03-23T04:37:40;6.00;99.90
7240;DHT22;3661;53.288;10.458;2024-03-23T04:40:13;6.00;99.90
7240;DHT22;3661;53.288;10.458;2024-03-23T04:42:45;6.00;99.90
7240;DHT22;3661;53.288;10.458;2024-03-23T04:45:18;6.00;99.90
7240;DHT22;3661;53.288;10.458;2024-03-23T04:47:50;6.00;99.90
7240;DHT22;3661;53.288;10.458;2024-03-23T04:50:22;6.00;99.90
7240;DHT22;3661;53.288;10.458;2024-03-23T04:52:53;6.00;99.90
7240;DHT22;3661;53.288;10.458;2024-03-23T04:55:27;6.00;99.90
7240;DHT22;3661;53.288;10.458;2024-03-23T04:57:59;6.00;99.90
7240;DHT22;3661;53.288;10.458;2024-03-23T05:00:31;5.90;99.90
7240;DHT22;3661;53.288;10.458;2024-03-23T05:03:02;5.90;99.90
7240;DHT22;3661;53.288;10.458;2024-03-23T05:05:34;5.90;99.90
7240;DHT22;3661;53.288;10.458;2024-03-23T05:08:06;5.90;99.90
7240;DHT22;3661;53.288;10.458;2024-03-23T05:10:41;5.90;99.90
7240;DHT22;3661;53.288;10.458;2024-03-23T05:13:12;5.90;99.90
7240;DHT22;3661;53.288;10.458;2024-03-23T05:15:50;5.90;99.90
7240;DHT22;3661;53.288;10.458;2024-03-23T05:18:22;5.90;99.90
7240;DHT22;3661;53.288;10.458;2024-03-23T05:20:57;5.90;99.90
7240;DHT22;3661;53.288;10.458;2024-03-23T05:23:29;5.90;99.90
7240;DHT22;3661;53.288;10.458;2024-03-23T05:26:03;5.90;99.90
7240;DHT22;3661;53.288;10.458;2024-03-23T05:28:35;5.90;99.90
7240;DHT22;3661;53.288;10.458;2024-03-23T05:31:07;5.90;99.90
7240;DHT22;3661;53.288;10.458;2024-03-23T05:33:39;5.90;99.90
7240;DHT22;3661;53.288;10.458;2024-03-23T05:36:12;5.90;99.90
7240;DHT22;3661;53.288;10.458;2024-03-23T05:38:43;5.90;99.90
7240;DHT22;3661;53.288;10.458;2024-03-23T05:41:17;5.90;99.90
7240;DHT22;3661;53.288;10.458;2024-03-23T05:43:48;5.90;99.90
7240;DHT22;3661;53.288;10.458;2024-03-23T05:46:20;5.90;99.90
7240;DHT22;3661;53.288;10.458;2024-03-23T05:48:51;5.80;99.90
7240;DHT22;3661;53.288;10.458;2024-03-23T05:51:24;5.80;99.90
7240;DHT22;3661;53.288;10.458;2024-03-23T05:53:55;5.80;99.90
7240;DHT22;3661;53.288;10.458;2024-03-23T05:56:28;5.80;99.90
7240;DHT22;3661;53.288;10.458;2024-03-23T05:59:00;5.80;99.90
7240;DHT22;3661;53.288;10.458;2024-03-23T06:01:33;5.80;99.90
7240;DHT22;3661;53.288;10.458;2024-03-23T06:04:05;5.80;99.90
7240;DHT22;3661;53.288;10.458;2024-03-23T06:06:37;5.80;99.90
7240;DHT22;3661;53.288;10.458;2024-03-23T06:09:08;5.80;99.90
7240;DHT22;3661;53.288;10.458;2024-03-23T06:11:41;5.80;99.90
7240;DHT22;3661;53.288;10.458;2024-03-23T06:14:13;5.90;99.90
7240;DHT22;3661;53.288;10.458;2024-03-23T06:16:45;5.80;99.90
7240;DHT22;3661;53.288;10.458;2024-03-23T06:19:16;5.80;99.90
7240;DHT22;3661;53.288;10.458;2024-03-23T06:21:48;5.90;99.90
7240;DHT22;3661;53.288;10.458;2024-03-23T06:24:19;5.90;99.90
7240;DHT22;3661;53.288;10.458;2024-03-23T06:26:52;5.90;99.90
7240;DHT22;3661;53.288;10.458;2024-03-23T06:29:24;5.90;99.90
7240;DHT22;3661;53.288;10.458;2024-03-23T06:31:56;5.90;99.90
7240;DHT22;3661;53.288;10.458;2024-03-23T06:34:27;5.90;99.90
7240;DHT22;3661;53.288;10.458;2024-03-23T06:36:59;5.90;99.90
7240;DHT22;3661;53.288;10.458;2024-03-23T06:39:30;5.90;99.90
7240;DHT22;3661;53.288;10.458;2024-03-23T06:42:05;5.90;99.90
7240;DHT22;3661;53.288;10.458;2024-03-23T06:44:36;5.90;99.90
7240;DHT22;3661;53.288;10.458;2024-03-23T06:47:08;5.90;99.90
7240;DHT22;3661;53.288;10.458;2024-03-23T06:49:39;5.90;99.90
7240;DHT22;3661;53.288;10.458;2024-03-23T06:52:11;5.90;99.90
7240;DHT22;3661;53.288;10.458;2024-03-23T06:54:42;6.00;99.90
7240;DHT22;3661;53.288;10.458;2024-03-23T06:57:16;6.00;99.90
7240;DHT22;3661;53.288;10.458;2024-03-23T06:59:47;6.00;99.90
7240;DHT22;3661;53.288;10.458;2024-03-23T07:02:19;6.00;99.90
7240;DHT22;3661;53.288;10.458;2024-03-23T07:04:50;6.00;99.90
7240;DHT22;3661;53.288;10.458;2024-03-23T07:07:23;6.00;99.90
7240;DHT22;3661;53.288;10.458;2024-03-23T07:09:54;6.10;99.90
7240;DHT22;3661;53.288;10.458;2024-03-23T07:12:28;6.10;99.90
7240;DHT22;3661;53.288;10.458;2024-03-23T07:15:00;6.10;99.90
7240;DHT22;3661;53.288;10.458;2024-03-23T07:17:32;6.20;99.90
7240;DHT22;3661;53.288;10.458;2024-03-23T07:20:06;6.30;99.90
7240;DHT22;3661;53.288;10.458;2024-03-23T07:22:41;6.30;99.90
7240;DHT22;3661;53.288;10.458;2024-03-23T07:25:12;6.40;99.90
7240;DHT22;3661;53.288;10.458;2024-03-23T07:27:45;6.40;99.90
7240;DHT22;3661;53.288;10.458;2024-03-23T07:30:16;6.50;99.90
7240;DHT22;3661;53.288;10.458;2024-03-23T07:32:48;6.50;99.90
7240;DHT22;3661;53.288;10.458;2024-03-23T07:35:19;6.60;99.90
7240;DHT22;3661;53.288;10.458;2024-03-23T07:37:51;6.60;99.90
7240;DHT22;3661;53.288;10.458;2024-03-23T07:40:22;6.70;99.90
7240;DHT22;3661;53.288;10.458;2024-03-23T07:42:56;6.80;99.90
7240;DHT22;3661;53.288;10.458;2024-03-23T07:45:27;6.80;99.90
7240;DHT22;3661;53.288;10.458;2024-03-23T07:47:59;6.90;99.90
7240;DHT22;3661;53.288;10.458;2024-03-23T07:50:30;6.90;99.90
7240;DHT22;3661;53.288;10.458;2024-03-23T07:53:02;7.00;99.90
7240;DHT22;3661;53.288;10.458;2024-03-23T07:55:33;7.00;99.90
7240;DHT22;3661;53.288;10.458;2024-03-23T07:58:06;7.00;99.90
7240;DHT22;3661;53.288;10.458;2024-03-23T08:00:37;7.10;99.90
7240;DHT22;3661;53.288;10.458;2024-03-23T08:03:09;7.10;99.90
7240;DHT22;3661;53.288;10.458;2024-03-23T08:05:41;7.10;99.90
7240;DHT22;3661;53.288;10.458;2024-03-23T08:08:13;7.20;99.90
7240;DHT22;3661;53.288;10.458;2024-03-23T08:10:48;7.20;99.90
7240;DHT22;3661;53.288;10.458;2024-03-23T08:13:21;7.20;99.90
7240;DHT22;3661;53.288;10.458;2024-03-23T08:15:56;7.20;99.90
7240;DHT22;3661;53.288;10.458;2024-03-23T08:18:28;7.20;99.90
7240;DHT22;3661;53.288;10.458;2024-03-23T08:21:01;7.30;99.90
7240;DHT22;3661;53.288;10.458;2024-03-23T08:23:34;7.40;99.90
7240;DHT22;3661;53.288;10.458;2024-03-23T08:26:09;7.40;99.90
7240;DHT22;3661;53.288;10.458;2024-03-23T08:28:42;7.50;99.90
7240;DHT22;3661;53.288;10.458;2024-03-23T08:31:14;7.60;99.90
7240;DHT22;3661;53.288;10.458;2024-03-23T08:33:45;7.70;99.90
7240;DHT22;3661;53.288;10.458;2024-03-23T08:36:18;7.80;99.90
7240;DHT22;3661;53.288;10.458;2024-03-23T08:38:49;7.90;99.90
7240;DHT22;3661;53.288;10.458;2024-03-23T08:41:24;8.00;99.90
7240;DHT22;3661;53.288;10.458;2024-03-23T08:43:57;8.10;99.90
7240;DHT22;3661;53.288;10.458;2024-03-23T08:46:29;8.20;99.90
7240;DHT22;3661;53.288;10.458;2024-03-23T08:49:00;8.30;99.90
7240;DHT22;3661;53.288;10.458;2024-03-23T08:51:33;8.50;99.90
7240;DHT22;3661;53.288;10.458;2024-03-23T08:54:04;8.60;99.90
7240;DHT22;3661;53.288;10.458;2024-03-23T08:56:36;8.70;99.90
7240;DHT22;3661;53.288;10.458;2024-03-23T08:59:09;8.80;99.90
7240;DHT22;3661;53.288;10.458;2024-03-23T09:01:42;9.00;99.90
7240;DHT22;3661;53.288;10.458;2024-03-23T09:04:13;9.10;99.90
7240;DHT22;3661;53.288;10.458;2024-03-23T09:06:45;9.20;99.90
7240;DHT22;3661;53.288;10.458;2024-03-23T09:09:16;9.30;99.90
7240;DHT22;3661;53.288;10.458;2024-03-23T09:11:48;9.40;99.90
7240;DHT22;3661;53.288;10.458;2024-03-23T09:14:22;9.50;99.90
7240;DHT22;3661;53.288;10.458;2024-03-23T09:16:54;9.60;99.90
7240;DHT22;3661;53.288;10.458;2024-03-23T09:19:28;9.80;99.90
7240;DHT22;3661;53.288;10.458;2024-03-23T09:22:00;9.90;99.90
7240;DHT22;3661;53.288;10.458;2024-03-23T09:24:31;10.00;99.90
7240;DHT22;3661;53.288;10.458;2024-03-23T09:27:03;10.10;99.90
7240;DHT22;3661;53.288;10.458;2024-03-23T09:29:37;10.20;99.90
7240;DHT22;3661;53.288;10.458;2024-03-23T09:32:08;10.30;99.90
7240;DHT22;3661;53.288;10.458;2024-03-23T09:34:40;10.40;99.90
7240;DHT22;3661;53.288;10.458;2024-03-23T09:37:12;10.50;99.90
7240;DHT22;3661;53.288;10.458;2024-03-23T09:39:44;10.60;99.90
7240;DHT22;3661;53.288;10.458;2024-03-23T09:42:15;10.70;99.90
7240;DHT22;3661;53.288;10.458;2024-03-23T09:44:51;10.80;99.90
7240;DHT22;3661;53.288;10.458;2024-03-23T09:47:22;10.90;99.90
7240;DHT22;3661;53.288;10.458;2024-03-23T09:49:55;10.90;99.90
7240;DHT22;3661;53.288;10.458;2024-03-23T09:52:27;10.90;99.90
7240;DHT22;3661;53.288;10.458;2024-03-23T09:54:58;10.90;99.90
7240;DHT22;3661;53.288;10.458;2024-03-23T09:57:30;10.90;99.90
7240;DHT22;3661;53.288;10.458;2024-03-23T10:00:05;11.00;99.90
7240;DHT22;3661;53.288;10.458;2024-03-23T10:02:38;11.00;99.90
7240;DHT22;3661;53.288;10.458;2024-03-23T10:05:20;11.00;99.90
7240;DHT22;3661;53.288;10.458;2024-03-23T10:07:53;11.10;99.90
7240;DHT22;3661;53.288;10.458;2024-03-23T10:10:25;11.10;99.90
7240;DHT22;3661;53.288;10.458;2024-03-23T10:12:57;11.20;99.90
7240;DHT22;3661;53.288;10.458;2024-03-23T10:15:34;11.20;99.90
7240;DHT22;3661;53.288;10.458;2024-03-23T10:18:17;11.30;99.90
7240;DHT22;3661;53.288;10.458;2024-03-23T10:20:52;11.40;99.90
7240;DHT22;3661;53.288;10.458;2024-03-23T10:23:23;11.40;99.90
7240;DHT22;3661;53.288;10.458;2024-03-23T10:25:55;11.60;99.90
7240;DHT22;3661;53.288;10.458;2024-03-23T10:28:53;11.70;99.90
7240;DHT22;3661;53.288;10.458;2024-03-23T10:31:27;11.80;99.90
7240;DHT22;3661;53.288;10.458;2024-03-23T10:33:58;11.90;99.90
7240;DHT22;3661;53.288;10.458;2024-03-23T10:36:31;11.90;99.90
7240;DHT22;3661;53.288;10.458;2024-03-23T10:39:03;12.00;99.90
7240;DHT22;3661;53.288;10.458;2024-03-23T10:41:37;12.00;99.90
7240;DHT22;3661;53.288;10.458;2024-03-23T10:44:11;12.10;99.90
7240;DHT22;3661;53.288;10.458;2024-03-23T10:46:45;12.10;99.90
7240;DHT22;3661;53.288;10.458;2024-03-23T10:49:16;12.10;99.90
7240;DHT22;3661;53.288;10.458;2024-03-23T10:51:48;12.10;99.90
7240;DHT22;3661;53.288;10.458;2024-03-23T10:54:20;12.10;99.90
7240;DHT22;3661;53.288;10.458;2024-03-23T10:56:57;12.20;99.90
7240;DHT22;3661;53.288;10.458;2024-03-23T10:59:30;12.20;99.90
7240;DHT22;3661;53.288;10.458;2024-03-23T11:02:04;12.20;99.90
7240;DHT22;3661;53.288;10.458;2024-03-23T11:04:37;12.20;99.90
7240;DHT22;3661;53.288;10.458;2024-03-23T11:07:29;12.30;99.90
7240;DHT22;3661;53.288;10.458;2024-03-23T11:10:02;12.30;99.90
7240;DHT22;3661;53.288;10.458;2024-03-23T11:12:34;12.40;99.90
7240;DHT22;3661;53.288;10.458;2024-03-23T11:15:11;12.40;99.90
7240;DHT22;3661;53.288;10.458;2024-03-23T11:18:02;12.40;99.90
7240;DHT22;3661;53.288;10.458;2024-03-23T11:20:35;12.50;99.90
7240;DHT22;3661;53.288;10.458;2024-03-23T11:23:07;12.60;99.90
7240;DHT22;3661;53.288;10.458;2024-03-23T11:25:57;12.70;99.90
7240;DHT22;3661;53.288;10.458;2024-03-23T11:28:30;12.80;99.90
7240;DHT22;3661;53.288;10.458;2024-03-23T11:31:01;12.80;99.90
7240;DHT22;3661;53.288;10.458;2024-03-23T11:33:42;12.90;99.90
7240;DHT22;3661;53.288;10.458;2024-03-23T11:36:19;13.00;99.90
7240;DHT22;3661;53.288;10.458;2024-03-23T11:38:51;13.00;99.90
7240;DHT22;3661;53.288;10.458;2024-03-23T11:41:22;13.00;99.90
7240;DHT22;3661;53.288;10.458;2024-03-23T11:43:54;13.00;99.90
7240;DHT22;3661;53.288;10.458;2024-03-23T11:46:25;13.00;99.90
7240;DHT22;3661;53.288;10.458;2024-03-23T11:48:59;12.90;99.90
7240;DHT22;3661;53.288;10.458;2024-03-23T11:51:30;12.80;99.90
7240;DHT22;3661;53.288;10.458;2024-03-23T11:54:08;12.60;99.90
7240;DHT22;3661;53.288;10.458;2024-03-23T11:56:39;12.40;99.90
7240;DHT22;3661;53.288;10.458;2024-03-23T11:59:11;12.20;99.90
7240;DHT22;3661;53.288;10.458;2024-03-23T12:01:42;12.10;99.90
7240;DHT22;3661;53.288;10.458;2024-03-23T12:04:26;11.90;99.90
7240;DHT22;3661;53.288;10.458;2024-03-23T12:07:11;11.70;99.90
7240;DHT22;3661;53.288;10.458;2024-03-23T12:09:44;11.60;99.90
7240;DHT22;3661;53.288;10.458;2024-03-23T12:12:17;11.50;99.90
7240;DHT22;3661;53.288;10.458;2024-03-23T12:15:02;11.50;99.90
7240;DHT22;3661;53.288;10.458;2024-03-23T12:17:34;11.50;99.90
7240;DHT22;3661;53.288;10.458;2024-03-23T12:20:10;11.50;99.90
7240;DHT22;3661;53.288;10.458;2024-03-23T12:22:43;11.60;99.90
7240;DHT22;3661;53.288;10.458;2024-03-23T12:25:16;11.60;99.90
7240;DHT22;3661;53.288;10.458;2024-03-23T12:27:48;11.70;99.90
7240;DHT22;3661;53.288;10.458;2024-03-23T12:30:19;11.70;99.90
7240;DHT22;3661;53.288;10.458;2024-03-23T12:32:51;11.80;99.90
7240;DHT22;3661;53.288;10.458;2024-03-23T12:35:24;11.80;99.90
7240;DHT22;3661;53.288;10.458;2024-03-23T12:37:56;11.90;99.90
7240;DHT22;3661;53.288;10.458;2024-03-23T12:40:28;11.90;99.90
7240;DHT22;3661;53.288;10.458;2024-03-23T12:43:00;12.00;99.90
7240;DHT22;3661;53.288;10.458;2024-03-23T12:45:31;12.00;99.90
7240;DHT22;3661;53.288;10.458;2024-03-23T12:48:04;12.00;99.90
7240;DHT22;3661;53.288;10.458;2024-03-23T12:50:37;12.00;99.90
7240;DHT22;3661;53.288;10.458;2024-03-23T12:53:08;12.00;99.90
7240;DHT22;3661;53.288;10.458;2024-03-23T12:55:41;11.90;99.90
7240;DHT22;3661;53.288;10.458;2024-03-23T12:58:12;11.90;99.90
7240;DHT22;3661;53.288;10.458;2024-03-23T13:00:44;11.80;99.90
7240;DHT22;3661;53.288;10.458;2024-03-23T13:03:16;11.80;99.90
7240;DHT22;3661;53.288;10.458;2024-03-23T13:05:53;11.80;99.90
7240;DHT22;3661;53.288;10.458;2024-03-23T13:08:24;11.70;99.90
7240;DHT22;3661;53.288;10.458;2024-03-23T13:10:56;11.70;99.90
7240;DHT22;3661;53.288;10.458;2024-03-23T13:13:28;11.70;99.90
7240;DHT22;3661;53.288;10.458;2024-03-23T13:16:00;11.60;99.90
7240;DHT22;3661;53.288;10.458;2024-03-23T13:18:31;11.60;99.90
7240;DHT22;3661;53.288;10.458;2024-03-23T13:21:05;11.60;99.90
7240;DHT22;3661;53.288;10.458;2024-03-23T13:23:36;11.50;99.90
7240;DHT22;3661;53.288;10.458;2024-03-23T13:26:13;11.40;99.90
7240;DHT22;3661;53.288;10.458;2024-03-23T13:28:44;11.30;99.90
7240;DHT22;3661;53.288;10.458;2024-03-23T13:31:16;11.20;99.90
7240;DHT22;3661;53.288;10.458;2024-03-23T13:33:47;11.10;99.90
7240;DHT22;3661;53.288;10.458;2024-03-23T13:36:21;11.00;99.90
7240;DHT22;3661;53.288;10.458;2024-03-23T13:38:52;10.90;99.90
7240;DHT22;3661;53.288;10.458;2024-03-23T13:41:24;10.80;99.90
7240;DHT22;3661;53.288;10.458;2024-03-23T13:43:55;10.70;99.90
7240;DHT22;3661;53.288;10.458;2024-03-23T13:46:27;10.60;99.90
7240;DHT22;3661;53.288;10.458;2024-03-23T13:48:59;10.40;99.90
7240;DHT22;3661;53.288;10.458;2024-03-23T13:51:34;10.30;99.90
7240;DHT22;3661;53.288;10.458;2024-03-23T13:54:05;10.20;99.90
7240;DHT22;3661;53.288;10.458;2024-03-23T13:56:37;10.10;99.90
7240;DHT22;3661;53.288;10.458;2024-03-23T13:59:08;10.00;99.90
7240;DHT22;3661;53.288;10.458;2024-03-23T14:01:40;9.90;99.90
7240;DHT22;3661;53.288;10.458;2024-03-23T14:04:13;9.80;99.90
7240;DHT22;3661;53.288;10.458;2024-03-23T14:06:50;9.70;99.90
7240;DHT22;3661;53.288;10.458;2024-03-23T14:09:21;9.60;99.90
7240;DHT22;3661;53.288;10.458;2024-03-23T14:11:56;9.50;99.90
7240;DHT22;3661;53.288;10.458;2024-03-23T14:14:27;9.40;99.90
7240;DHT22;3661;53.288;10.458;2024-03-23T14:17:00;9.30;99.90
7240;DHT22;3661;53.288;10.458;2024-03-23T14:19:31;9.20;99.90
7240;DHT22;3661;53.288;10.458;2024-03-23T14:22:05;9.10;99.90
7240;DHT22;3661;53.288;10.458;2024-03-23T14:24:36;9.00;99.90
7240;DHT22;3661;53.288;10.458;2024-03-23T14:27:09;8.80;99.90
7240;DHT22;3661;53.288;10.458;2024-03-23T14:29:41;8.70;99.90
7240;DHT22;3661;53.288;10.458;2024-03-23T14:32:13;8.50;99.90
7240;DHT22;3661;53.288;10.458;2024-03-23T14:34:45;8.50;99.90
7240;DHT22;3661;53.288;10.458;2024-03-23T14:37:18;8.40;99.90
7240;DHT22;3661;53.288;10.458;2024-03-23T14:39:50;8.30;99.90
7240;DHT22;3661;53.288;10.458;2024-03-23T14:42:22;8.20;99.90
7240;DHT22;3661;53.288;10.458;2024-03-23T14:44:54;8.10;99.90
7240;DHT22;3661;53.288;10.458;2024-03-23T14:47:26;8.10;99.90
7240;DHT22;3661;53.288;10.458;2024-03-23T14:49:57;8.00;99.90
7240;DHT22;3661;53.288;10.458;2024-03-23T14:52:31;8.00;99.90
7240;DHT22;3661;53.288;10.458;2024-03-23T14:55:02;7.90;99.90
7240;DHT22;3661;53.288;10.458;2024-03-23T14:57:34;7.90;99.90
7240;DHT22;3661;53.288;10.458;2024-03-23T15:00:07;7.90;99.90
7240;DHT22;3661;53.288;10.458;2024-03-23T15:02:41;7.90;99.90
7240;DHT22;3661;53.288;10.458;2024-03-23T15:05:12;7.90;99.90
7240;DHT22;3661;53.288;10.458;2024-03-23T15:07:46;7.90;99.90
7240;DHT22;3661;53.288;10.458;2024-03-23T15:10:17;7.90;99.90
7240;DHT22;3661;53.288;10.458;2024-03-23T15:12:49;7.90;99.90
7240;DHT22;3661;53.288;10.458;2024-03-23T15:15:20;7.90;99.90
7240;DHT22;3661;53.288;10.458;2024-03-23T15:17:52;8.00;99.90
7240;DHT22;3661;53.288;10.458;2024-03-23T15:20:23;8.10;99.90
7240;DHT22;3661;53.288;10.458;2024-03-23T15:22:57;8.10;99.90
7240;DHT22;3661;53.288;10.458;2024-03-23T15:25:28;8.20;99.90
7240;DHT22;3661;53.288;10.458;2024-03-23T15:28:01;8.40;99.90
7240;DHT22;3661;53.288;10.458;2024-03-23T15:30:32;8.40;99.90
7240;DHT22;3661;53.288;10.458;2024-03-23T15:33:06;8.50;99.90
7240;DHT22;3661;53.288;10.458;2024-03-23T15:35:38;8.60;99.90
7240;DHT22;3661;53.288;10.458;2024-03-23T15:38:11;8.70;99.90
7240;DHT22;3661;53.288;10.458;2024-03-23T15:40:50;8.80;99.90
7240;DHT22;3661;53.288;10.458;2024-03-23T15:43:22;8.90;99.90
7240;DHT22;3661;53.288;10.458;2024-03-23T15:45:54;9.00;99.90
7240;DHT22;3661;53.288;10.458;2024-03-23T15:48:25;9.10;99.90
7240;DHT22;3661;53.288;10.458;2024-03-23T15:50:59;9.30;99.90
7240;DHT22;3661;53.288;10.458;2024-03-23T15:53:34;9.30;99.90
7240;DHT22;3661;53.288;10.458;2024-03-23T15:56:07;9.30;99.90
7240;DHT22;3661;53.288;10.458;2024-03-23T15:58:39;9.40;99.90
7240;DHT22;3661;53.288;10.458;2024-03-23T16:01:11;9.40;99.90
7240;DHT22;3661;53.288;10.458;2024-03-23T16:03:43;9.40;99.90
7240;DHT22;3661;53.288;10.458;2024-03-23T16:06:15;9.30;99.90
7240;DHT22;3661;53.288;10.458;2024-03-23T16:08:47;9.30;99.90
7240;DHT22;3661;53.288;10.458;2024-03-23T16:11:19;9.30;99.90
7240;DHT22;3661;53.288;10.458;2024-03-23T16:13:50;9.30;99.90
7240;DHT22;3661;53.288;10.458;2024-03-23T16:16:22;9.30;99.90
7240;DHT22;3661;53.288;10.458;2024-03-23T16:18:54;9.40;99.90
7240;DHT22;3661;53.288;10.458;2024-03-23T16:21:28;9.40;99.90
7240;DHT22;3661;53.288;10.458;2024-03-23T16:24:00;9.40;99.90
7240;DHT22;3661;53.288;10.458;2024-03-23T16:26:32;9.50;99.90
7240;DHT22;3661;53.288;10.458;2024-03-23T16:29:03;9.50;99.90
7240;DHT22;3661;53.288;10.458;2024-03-23T16:31:36;9.50;99.90
7240;DHT22;3661;53.288;10.458;2024-03-23T16:34:13;9.50;99.90
7240;DHT22;3661;53.288;10.458;2024-03-23T16:43:25;9.30;99.90
7240;DHT22;3661;53.288;10.458;2024-03-23T16:49:06;9.10;99.90
7240;DHT22;3661;53.288;10.458;2024-03-23T16:51:49;8.90;99.90
7240;DHT22;3661;53.288;10.458;2024-03-23T16:55:15;8.80;99.90
7240;DHT22;3661;53.288;10.458;2024-03-23T16:58:26;8.60;99.90
7240;DHT22;3661;53.288;10.458;2024-03-23T17:01:14;8.40;99.90
7240;DHT22;3661;53.288;10.458;2024-03-23T17:04:07;8.20;99.90
7240;DHT22;3661;53.288;10.458;2024-03-23T17:06:44;8.10;99.90
7240;DHT22;3661;53.288;10.458;2024-03-23T17:16:18;7.70;99.90
7240;DHT22;3661;53.288;10.458;2024-03-23T17:19:15;7.60;99.90
7240;DHT22;3661;53.288;10.458;2024-03-23T17:22:00;7.60;99.90
7240;DHT22;3661;53.288;10.458;2024-03-23T17:24:44;7.50;99.90
7240;DHT22;3661;53.288;10.458;2024-03-23T17:27:29;7.40;99.90
7240;DHT22;3661;53.288;10.458;2024-03-23T17:36:58;7.10;99.90
7240;DHT22;3661;53.288;10.458;2024-03-23T17:46:32;6.80;99.90
7240;DHT22;3661;53.288;10.458;2024-03-23T17:53:06;6.60;99.90
7240;DHT22;3661;53.288;10.458;2024-03-23T17:55:42;6.50;99.90
7240;DHT22;3661;53.288;10.458;2024-03-23T17:58:16;6.40;99.90
7240;DHT22;3661;53.288;10.458;2024-03-23T18:00:55;6.30;99.90
7240;DHT22;3661;53.288;10.458;2024-03-23T18:06:58;6.20;99.90